Cape Girardeau, MO

9:18 PM CDT on July 30, 2014 (GMT -0500)
Williamson County Regional (KMWA) Elev 472 ft | 37.75 °N, 89.01 °W | Change Station

Current weather conditions updated 23 minutes ago

Clear
Clear
70 °F
Feels Like 70 °F
N
0
Wind Variable Wind from North

Tomorrow is forecast to be nearly the same temperature as today. Afternoon showers.

Today
High -- | Low -- °F
--% Chance of Precip.
Yesterday
High -- | Low -- °F
Precip. -- in
6:01 AM 8:07 PM
Waxing Crescent, 15% visible
Pressure 30.07 in
Visibility 10.0 miles
Clouds Clear
Dew Point 63 °F
Humidity 78%
Rainfall 0.00 in
Snow Depth Not available.
UV 0 out of 12
Pollen 6.70 out of 12
Air Quality Not available.
Flu Activity Not available.
METAR KMWA 310155Z AUTO 00000KT 10SM CLR 21/17 A3007 RMK AO2

More Conditions Fewer Conditions

Pressure 30.07 in
Visibility 10.0 miles
Clouds Clear
Dew Point 63 °F
Humidity 78%
Rainfall 0.00 in
Snow Depth Not available.
UV 0 out of 12
Pollen 6.70 out of 12
Air Quality Not available.
Flu Activity Not available.
METAR KMWA 310155Z AUTO 00000KT 10SM CLR 21/17 A3007 RMK AO2

More Conditions Fewer Conditions

10-Day Weather Forecast

Almanac

Astronomy

Jul. 30, 2014 Rise Set
Actual Time 6:01 AM CDT 8:07 PM CDT
Civil Twilight 5:32 AM CDT 8:36 PM CDT
Nautical Twilight 4:56 AM CDT 9:11 PM CDT
Astronomical Twilight 4:18 AM CDT 9:50 PM CDT
Moon 9:27 AM CDT (7/30) 9:56 PM CDT (7/30)
Length of Visible Light 15h 04m
Length of Day
14h 06m
Tomorrow will be 1m 45s shorter.
Waxing Crescent, 15% of the Moon is Illuminated
Today
Waxing Crescent
Aug 3
First Quarter
Aug 10
Full
Aug 17
Last Quarter
Aug 25
New

Today's Extremes

State Highs State Lows

Community

WunderPhotos

Upload Photos

1,739,269 photos uploaded!

Nearby

Snow Depth

Station Depth Elevation
No new snow has been reported.

Earthquake Activity

City Distance Mag. Time & Date
No recent earthquake activity has been reported nearby.
Minimum magnitude displayed is 2.5.

Coastal Water Temperatures

Place Temperature
No Stations Reporting

Nearby Weather Stations

Station Location Temp. Dew Point Humidity Wind Precip. Elev Updated Type
WeatherTop, Cape Girardeau, MO 66.4 °F 65 °F 95% ESE  at  0.0 mph 0.00 in / hr 492 ft 9:12 PM CDT Normal
MesoWest McClure (IL 3 @ IL 146) , McClure, IL 68 °F 64 °F 88% North  at  0 mph 0.00 in / hr 347 ft 8:40 PM CDT MADIS
Dept. of Social Mediarology, Jackson, MO 66.9 °F 61 °F 82% WSW  at  0.0 mph - / hr 522 ft 9:14 PM CDT Normal
Jackson, MO - Goose Creek at Old Cape Rd, Jackson, MO 68.2 °F 65 °F 89% NE  at  0.0 mph - / hr 535 ft 9:16 PM CDT Normal
MesoWest WARE1 , Cypress, IL 71 °F - - North  at  - 0.00 in / hr 351 ft 8:15 PM CDT MADIS
MesoWest STAFF , Grand Tower, IL 69 °F - - North  at  - 0.00 in / hr 358 ft 8:00 PM CDT MADIS

Show More Stations Show Fewer Stations